createdAt,value
2018-02-22T00:01:38.946Z,25.92
2018-02-22T00:04:07.773Z,24.23
2018-02-22T00:06:36.426Z,23.73
2018-02-22T00:09:05.474Z,25.25
2018-02-22T00:11:34.494Z,23.87
2018-02-22T00:14:03.766Z,23.45
2018-02-22T00:16:37.468Z,25.15
2018-02-22T00:19:06.453Z,24.30
2018-02-22T00:21:35.274Z,25.85
2018-02-22T00:24:04.083Z,23.90
2018-02-22T00:26:33.138Z,25.77
2018-02-22T00:29:02.576Z,23.77
2018-02-22T00:31:31.623Z,23.58
2018-02-22T00:34:01.391Z,25.70
2018-02-22T00:36:31.553Z,25.48
2018-02-22T00:39:00.829Z,24.00
2018-02-22T00:41:29.348Z,22.85
2018-02-22T00:43:58.316Z,22.45
2018-02-22T00:46:27.219Z,24.02
2018-02-22T00:48:56.455Z,24.15
2018-02-22T00:51:25.499Z,22.73
2018-02-22T00:53:54.772Z,24.00
2018-02-22T00:56:24.110Z,25.37
2018-02-22T00:58:58.799Z,24.15
2018-02-22T01:01:27.884Z,22.62
2018-02-22T01:03:57.067Z,22.85
2018-02-22T01:06:26.214Z,22.90
2018-02-22T01:08:55.528Z,23.02
2018-02-22T01:11:24.711Z,23.42
2018-02-22T01:13:53.824Z,23.20
2018-02-22T01:16:22.910Z,23.55
2018-02-22T01:18:51.932Z,23.12
2018-02-22T01:21:20.838Z,22.90
2018-02-22T01:23:49.890Z,22.50
2018-02-22T01:26:18.773Z,22.73
2018-02-22T01:28:47.747Z,20.35
2018-02-22T01:31:16.684Z,20.50
2018-02-22T01:33:45.870Z,20.95
2018-02-22T01:36:14.480Z,20.55
2018-02-22T01:38:43.262Z,22.95
2018-02-22T01:41:12.205Z,21.42
2018-02-22T01:43:41.316Z,21.17
2018-02-22T01:46:10.198Z,21.58
2018-02-22T01:48:39.573Z,21.83
2018-02-22T01:51:08.693Z,22.25
2018-02-22T01:53:37.704Z,20.20
2018-02-22T01:56:06.983Z,21.00
2018-02-22T01:58:36.143Z,23.08
2018-02-22T02:01:05.151Z,20.12
2018-02-22T02:43:14.762Z,19.05
2018-02-22T02:45:43.380Z,17.45
2018-02-22T02:48:12.608Z,19.12
2018-02-22T02:50:41.455Z,20.85
2018-02-22T02:53:09.905Z,21.05
2018-02-22T03:38:17.737Z,18.90
2018-02-22T03:40:46.855Z,17.37
2018-02-22T03:43:15.973Z,19.83
2018-02-22T03:45:46.180Z,17.73
2018-02-22T03:48:15.361Z,16.15
2018-02-22T03:50:44.481Z,18.45
2018-02-22T03:53:13.067Z,18.48
2018-02-22T04:13:41.581Z,17.10
2018-02-22T04:16:10.502Z,14.82
2018-02-22T04:18:40.617Z,16.33
2018-02-22T04:21:09.866Z,17.15
2018-02-22T04:23:38.668Z,15.38
2018-02-22T04:26:14.267Z,16.70
2018-02-22T04:28:43.029Z,15.05
2018-02-22T04:31:11.930Z,16.87
2018-02-22T04:33:40.808Z,17.08
2018-02-22T04:36:09.931Z,17.90
2018-02-22T04:38:38.594Z,17.70
2018-02-22T04:41:08.159Z,17.10
2018-02-22T04:43:36.945Z,15.45
2018-02-22T04:46:05.679Z,17.08
2018-02-22T04:48:34.530Z,16.48
2018-02-22T04:51:04.897Z,16.95
2018-02-22T04:53:33.856Z,16.98
2018-02-22T04:56:02.500Z,18.23
2018-02-22T04:58:30.942Z,17.17
2018-02-22T05:00:59.323Z,17.52
2018-02-22T05:03:27.736Z,17.52
2018-02-22T05:05:56.331Z,17.87
2018-02-22T05:08:25.353Z,17.33
2018-02-22T05:10:53.972Z,15.10
2018-02-22T05:13:22.475Z,18.77
2018-02-22T05:15:50.542Z,20.20
2018-02-22T05:18:18.276Z,19.17
2018-02-22T05:20:46.175Z,17.50
2018-02-22T05:23:14.002Z,17.17
2018-02-22T05:25:42.315Z,17.45
2018-02-22T05:28:10.496Z,17.80
2018-02-22T05:30:38.905Z,17.73
2018-02-22T05:33:06.725Z,17.62
2018-02-22T05:35:34.465Z,17.05
2018-02-22T05:38:02.507Z,18.48
2018-02-22T05:40:30.534Z,18.50
2018-02-22T05:42:58.085Z,19.15
2018-02-22T05:45:25.627Z,17.65
2018-02-22T05:47:53.412Z,18.75
2018-02-22T05:50:20.994Z,19.77
2018-02-22T05:52:48.816Z,19.35
2018-02-22T05:55:16.469Z,18.83
2018-02-22T05:57:44.113Z,20.15
2018-02-22T06:00:11.955Z,20.23
2018-02-22T06:02:39.680Z,18.80
2018-02-22T06:05:07.314Z,17.65
2018-02-22T06:07:34.889Z,19.02
2018-02-22T06:10:02.545Z,17.30
2018-02-22T06:12:30.243Z,23.05
2018-02-22T06:14:57.706Z,20.20
2018-02-22T06:17:25.517Z,19.08
2018-02-22T06:19:53.353Z,18.80
2018-02-22T06:22:20.921Z,19.90
2018-02-22T06:24:48.372Z,19.65
2018-02-22T06:27:15.857Z,18.40
2018-02-22T06:29:43.361Z,19.15
2018-02-22T06:32:11.320Z,18.87
2018-02-22T06:34:38.818Z,19.02
2018-02-22T06:37:06.491Z,17.00
2018-02-22T06:39:34.389Z,19.90
2018-02-22T06:51:00.183Z,23.62
2018-02-22T06:56:30.859Z,18.20
2018-02-22T06:58:59.012Z,19.40
2018-02-22T07:01:26.623Z,19.95
2018-02-22T07:03:54.109Z,19.08
2018-02-22T07:06:21.559Z,19.00
2018-02-22T07:08:49.108Z,18.15
2018-02-22T07:11:16.569Z,19.45
2018-02-22T07:13:44.024Z,18.87
2018-02-22T07:16:11.487Z,19.58
2018-02-22T07:18:38.926Z,19.20
2018-02-22T07:21:06.383Z,20.60
2018-02-22T07:23:33.824Z,22.25
2018-02-22T07:26:01.291Z,20.55
2018-02-22T07:28:28.972Z,20.55
2018-02-22T07:30:56.605Z,19.80
2018-02-22T07:33:24.077Z,21.17
2018-02-22T07:35:51.518Z,20.92
2018-02-22T07:38:18.983Z,20.67
2018-02-22T07:40:46.448Z,20.73
2018-02-22T07:43:13.921Z,19.87
2018-02-22T07:45:41.410Z,21.87
2018-02-22T07:48:08.882Z,22.08
2018-02-22T07:50:36.372Z,20.62
2018-02-22T07:53:03.832Z,21.45
2018-02-22T07:55:31.275Z,20.98
2018-02-22T07:57:58.841Z,20.83
2018-02-22T08:00:26.315Z,19.75
2018-02-22T08:02:53.793Z,21.20
2018-02-22T08:05:21.267Z,21.77
2018-02-22T08:07:48.753Z,20.30
2018-02-22T08:10:16.258Z,20.27
2018-02-22T08:12:43.735Z,21.05
2018-02-22T08:15:11.212Z,21.50
2018-02-22T08:17:38.716Z,20.23
2018-02-22T08:20:06.172Z,21.45
2018-02-22T08:22:33.630Z,21.25
2018-02-22T08:25:01.139Z,20.88
2018-02-22T08:27:28.586Z,19.83
2018-02-22T08:29:56.045Z,19.58
2018-02-22T08:32:23.502Z,20.77
2018-02-22T08:34:51.048Z,20.45
2018-02-22T08:37:18.496Z,20.85
2018-02-22T08:39:46.032Z,20.92
2018-02-22T08:42:13.492Z,20.90
2018-02-22T08:44:40.975Z,20.37
2018-02-22T08:47:08.441Z,19.60
2018-02-22T08:49:36.041Z,18.62
2018-02-22T08:52:03.531Z,18.70
2018-02-22T08:54:31.017Z,20.58
2018-02-22T08:56:58.496Z,17.98
2018-02-22T08:59:26.034Z,18.83
2018-02-22T09:01:53.503Z,18.00
2018-02-22T09:04:23.601Z,18.75
2018-02-22T09:06:51.171Z,19.23
2018-02-22T09:09:18.731Z,18.10
2018-02-22T09:11:46.201Z,17.37
2018-02-22T09:14:13.655Z,17.67
2018-02-22T09:16:41.141Z,18.02
2018-02-22T09:19:08.676Z,16.48
2018-02-22T09:21:36.126Z,17.25
2018-02-22T09:24:03.627Z,18.12
2018-02-22T09:26:31.087Z,19.08
2018-02-22T09:28:58.547Z,17.40
2018-02-22T09:31:26.066Z,17.80
2018-02-22T09:33:53.537Z,18.10
2018-02-22T09:36:22.127Z,18.10
2018-02-22T09:38:49.708Z,17.52
2018-02-22T09:41:17.185Z,18.37
2018-02-22T09:43:44.746Z,18.27
2018-02-22T09:46:12.236Z,18.65
2018-02-22T09:48:39.916Z,16.37
2018-02-22T09:51:07.430Z,17.45
2018-02-22T09:53:35.032Z,17.45
2018-02-22T09:56:02.526Z,17.37
2018-02-22T09:58:30.082Z,18.55
2018-02-22T10:00:57.623Z,17.05
2018-02-22T10:03:25.078Z,17.70
2018-02-22T10:05:52.572Z,17.98
2018-02-22T10:08:20.118Z,17.48
2018-02-22T10:10:47.584Z,17.45
2018-02-22T10:13:15.212Z,16.62
2018-02-22T10:15:42.696Z,17.58
2018-02-22T10:18:10.172Z,17.73
2018-02-22T10:20:37.762Z,17.00
2018-02-22T10:23:05.229Z,17.37
2018-02-22T10:25:32.706Z,17.83
2018-02-22T10:28:00.174Z,17.77
2018-02-22T10:30:28.010Z,18.85
2018-02-22T10:32:56.658Z,18.87
2018-02-22T10:35:24.308Z,16.83
2018-02-22T10:37:51.790Z,17.92
2018-02-22T10:40:19.388Z,18.08
2018-02-22T10:42:46.957Z,17.92
2018-02-22T10:45:14.440Z,18.60
2018-02-22T10:47:41.962Z,18.73
2018-02-22T10:50:09.440Z,18.58
2018-02-22T10:52:37.003Z,18.02
2018-02-22T10:55:04.648Z,19.50
2018-02-22T10:57:32.133Z,20.37
2018-02-22T10:59:59.614Z,19.45
2018-02-22T11:02:32.708Z,17.67
2018-02-22T11:07:53.096Z,18.37
2018-02-22T11:10:20.669Z,17.98
2018-02-22T11:12:48.127Z,18.25
2018-02-22T11:15:15.592Z,18.05
2018-02-22T11:17:43.041Z,19.45
2018-02-22T11:20:10.584Z,18.52
2018-02-22T11:22:38.052Z,17.25
2018-02-22T11:25:05.498Z,18.65
2018-02-22T11:27:33.078Z,17.20
2018-02-22T11:30:00.717Z,19.08
2018-02-22T11:32:28.177Z,20.20
2018-02-22T11:34:55.710Z,17.23
2018-02-22T11:37:23.199Z,17.75
2018-02-22T11:39:50.726Z,17.17
2018-02-22T11:42:18.213Z,18.52
2018-02-22T11:44:45.684Z,17.40
2018-02-22T11:47:15.994Z,17.75
2018-02-22T11:49:43.459Z,17.02
2018-02-22T11:52:10.953Z,15.35
2018-02-22T11:54:38.488Z,15.85
2018-02-22T11:57:05.965Z,17.15
2018-02-22T11:59:34.630Z,16.52
2018-02-22T12:02:02.135Z,17.10
2018-02-22T12:04:29.597Z,14.93
2018-02-22T12:06:57.149Z,16.23
2018-02-22T12:09:25.635Z,16.42
2018-02-22T12:11:53.116Z,16.08
2018-02-22T12:14:20.597Z,15.57
2018-02-22T12:16:48.063Z,15.05
2018-02-22T12:19:15.531Z,16.10
2018-02-22T12:21:43.037Z,16.75
2018-02-22T12:24:10.528Z,16.00
2018-02-22T12:26:38.009Z,15.18
2018-02-22T12:29:05.473Z,16.33
2018-02-22T12:31:32.929Z,15.43
2018-02-22T12:34:00.487Z,15.60
2018-02-22T12:36:28.039Z,15.90
2018-02-22T12:38:55.563Z,15.70
2018-02-22T12:41:23.044Z,15.93
2018-02-22T12:43:50.514Z,16.00
2018-02-22T12:46:17.970Z,15.47
2018-02-22T12:48:45.443Z,16.47
2018-02-22T12:51:12.915Z,15.90
2018-02-22T12:53:40.456Z,15.53
2018-02-22T12:56:07.916Z,17.70
2018-02-22T12:58:35.411Z,16.83
2018-02-22T13:01:02.954Z,15.10
2018-02-22T13:03:30.423Z,16.80
2018-02-22T13:05:57.871Z,17.63
2018-02-22T13:08:25.318Z,18.27
2018-02-22T13:10:52.781Z,16.73
2018-02-22T13:13:20.235Z,17.60
2018-02-22T13:15:47.698Z,15.63
2018-02-22T13:18:15.215Z,16.50
2018-02-22T13:20:42.839Z,14.37
2018-02-22T13:23:10.437Z,18.23
2018-02-22T13:25:37.902Z,15.87
2018-02-22T13:28:05.468Z,17.10
2018-02-22T13:30:32.922Z,16.07
2018-02-22T13:33:12.056Z,16.10
2018-02-22T13:35:39.568Z,15.73
2018-02-22T13:38:18.639Z,15.43
2018-02-22T13:40:46.092Z,15.30
2018-02-22T13:43:13.552Z,14.53
2018-02-22T13:45:41.233Z,14.90
2018-02-22T13:48:08.700Z,15.63
2018-02-22T13:50:47.991Z,19.07
2018-02-22T13:53:15.471Z,15.33
2018-02-22T13:55:42.966Z,14.10
2018-02-22T13:58:10.470Z,16.20
2018-02-22T14:00:49.552Z,15.20
2018-02-22T14:03:17.055Z,13.80
2018-02-22T14:05:44.569Z,16.20
2018-02-22T14:08:23.568Z,14.20
2018-02-22T14:10:51.045Z,15.97
2018-02-22T14:13:18.505Z,16.20
2018-02-22T14:15:46.046Z,17.03
2018-02-22T14:18:13.524Z,15.23
2018-02-22T14:20:41.032Z,15.80
2018-02-22T14:23:08.490Z,15.00
2018-02-22T14:25:35.966Z,16.33
2018-02-22T14:28:03.440Z,15.23
2018-02-22T14:30:30.916Z,16.10
2018-02-22T14:32:58.452Z,22.13
2018-02-22T14:35:25.912Z,15.80
2018-02-22T14:37:53.393Z,14.30
2018-02-22T14:40:20.847Z,14.70
2018-02-22T14:42:48.363Z,25.03
2018-02-22T14:45:15.807Z,16.80
2018-02-22T14:47:43.321Z,18.80
2018-02-22T14:50:10.784Z,17.03
2018-02-22T14:52:38.323Z,15.70
2018-02-22T14:55:05.802Z,17.27
2018-02-22T14:57:33.263Z,15.80
2018-02-22T15:00:00.741Z,14.53
2018-02-22T15:02:28.266Z,15.40
2018-02-22T15:04:55.710Z,14.70
2018-02-22T15:07:23.274Z,15.30
2018-02-22T15:09:50.749Z,13.40
2018-02-22T15:12:18.258Z,15.83
2018-02-22T15:14:45.784Z,13.87
2018-02-22T15:17:13.242Z,13.27
2018-02-22T15:19:40.713Z,15.07
2018-02-22T15:22:08.175Z,15.63
2018-02-22T15:24:35.655Z,15.57
2018-02-22T15:27:03.134Z,13.85
2018-02-22T15:29:30.652Z,12.45
2018-02-22T15:31:58.167Z,14.60
2018-02-22T15:34:25.631Z,14.02
2018-02-22T15:36:53.070Z,13.10
2018-02-22T15:39:20.555Z,13.90
2018-02-22T15:41:48.096Z,13.13
2018-02-22T15:44:15.549Z,12.85
2018-02-22T15:46:43.193Z,12.60
2018-02-22T15:49:10.764Z,13.13
2018-02-22T15:51:38.215Z,12.05
2018-02-22T15:54:05.660Z,12.80
2018-02-22T15:56:33.120Z,12.30
2018-02-22T15:59:00.721Z,12.88
2018-02-22T16:01:28.874Z,12.60
2018-02-22T16:06:35.747Z,11.20
2018-02-22T16:09:03.375Z,12.10
2018-02-22T16:11:31.960Z,12.18
2018-02-22T16:13:59.450Z,11.82
2018-02-22T16:16:29.403Z,11.38
2018-02-22T16:18:56.871Z,12.37
2018-02-22T16:21:27.225Z,12.18
2018-02-22T16:23:54.731Z,12.57
2018-02-22T16:26:26.678Z,12.23
2018-02-22T16:28:54.122Z,11.63
2018-02-22T16:31:21.609Z,11.63
2018-02-22T16:33:49.062Z,9.85
2018-02-22T16:36:17.233Z,12.55
2018-02-22T16:38:44.718Z,11.60
2018-02-22T16:41:12.426Z,12.23
2018-02-22T16:43:39.900Z,12.35
2018-02-22T16:46:07.363Z,11.45
2018-02-22T16:48:34.819Z,13.07
2018-02-22T16:51:02.306Z,13.25
2018-02-22T16:53:29.764Z,11.35
2018-02-22T16:55:57.245Z,10.98
2018-02-22T16:58:24.758Z,10.73
2018-02-22T17:00:52.208Z,11.65
2018-02-22T17:03:19.670Z,12.43
2018-02-22T17:05:47.228Z,12.65
2018-02-22T17:08:14.774Z,13.20
2018-02-22T17:10:43.079Z,13.15
2018-02-22T17:13:10.594Z,12.15
2018-02-22T17:15:38.113Z,12.27
2018-02-22T17:18:05.659Z,14.38
2018-02-22T17:20:33.231Z,13.82
2018-02-22T17:23:00.703Z,11.95
2018-02-22T17:25:27.596Z,14.38
2018-02-22T17:28:00.667Z,12.50
2018-02-22T17:30:33.590Z,14.63
2018-02-22T17:33:01.105Z,12.88
2018-02-22T17:38:41.573Z,12.10
2018-02-22T17:41:11.481Z,11.57
2018-02-22T17:43:38.963Z,11.18
2018-02-22T17:46:06.432Z,12.50
2018-02-22T17:48:34.042Z,12.20
2018-02-22T17:51:01.514Z,12.32
2018-02-22T17:53:29.015Z,13.23
2018-02-22T17:55:56.475Z,14.15
2018-02-22T17:58:23.998Z,13.57
2018-02-22T18:00:51.492Z,13.30
2018-02-22T18:03:18.939Z,13.48
2018-02-22T18:05:46.490Z,11.90
2018-02-22T18:08:13.952Z,11.88
2018-02-22T18:10:41.398Z,12.85
2018-02-22T18:13:08.875Z,23.87
2018-02-22T18:15:36.328Z,12.13
2018-02-22T18:18:03.792Z,12.32
2018-02-22T18:20:31.289Z,15.00
2018-02-22T18:22:58.762Z,11.02
2018-02-22T18:25:26.198Z,11.60
2018-02-22T18:27:53.647Z,13.80
2018-02-22T18:30:21.186Z,14.00
2018-02-22T18:32:48.689Z,12.77
2018-02-22T18:35:16.230Z,13.30
2018-02-22T18:37:49.455Z,14.70
2018-02-22T18:40:22.458Z,13.38
2018-02-22T18:42:49.897Z,12.98
2018-02-22T18:45:17.343Z,12.40
2018-02-22T18:47:44.821Z,12.70
2018-02-22T18:50:12.278Z,12.90
2018-02-22T18:52:39.790Z,11.20
2018-02-22T18:55:07.367Z,11.43
2018-02-22T18:57:34.854Z,12.80
2018-02-22T19:00:02.540Z,11.35
2018-02-22T19:02:30.003Z,14.43
2018-02-22T19:04:57.457Z,12.77
2018-02-22T19:07:24.907Z,12.40
2018-02-22T19:09:52.519Z,12.60
2018-02-22T19:12:19.981Z,13.60
2018-02-22T19:14:47.489Z,11.85
2018-02-22T19:17:14.943Z,13.27
2018-02-22T19:19:42.382Z,13.80
2018-02-22T19:22:13.433Z,11.98
2018-02-22T19:24:41.092Z,11.85
2018-02-22T19:27:08.561Z,11.05
2018-02-22T19:29:36.030Z,10.88
2018-02-22T19:32:03.496Z,11.73
2018-02-22T19:34:30.968Z,10.70
2018-02-22T19:36:58.460Z,10.50
2018-02-22T19:39:25.994Z,10.90
2018-02-22T19:41:53.438Z,10.65
2018-02-22T19:44:21.042Z,10.77
2018-02-22T19:46:48.558Z,10.43
2018-02-22T19:49:15.996Z,9.75
2018-02-22T19:51:43.549Z,9.50
2018-02-22T19:54:10.998Z,9.73
2018-02-22T19:56:38.470Z,10.10
2018-02-22T19:59:05.926Z,9.77
2018-02-22T20:01:33.379Z,9.23
2018-02-22T20:04:00.903Z,9.10
2018-02-22T20:06:28.365Z,8.55
2018-02-22T20:08:55.815Z,9.35
2018-02-22T20:11:23.292Z,8.65
2018-02-22T20:13:50.770Z,9.90
2018-02-22T20:16:18.294Z,9.10
2018-02-22T20:18:45.807Z,9.20
2018-02-22T20:21:13.321Z,9.40
2018-02-22T20:23:40.757Z,8.40
2018-02-22T20:26:08.236Z,9.10
2018-02-22T20:28:35.700Z,8.95
2018-02-22T20:31:03.287Z,8.15
2018-02-22T20:33:32.506Z,9.05
2018-02-22T20:36:00.015Z,9.13
2018-02-22T20:38:27.502Z,8.20
2018-02-22T20:40:55.013Z,8.90
2018-02-22T20:43:22.493Z,9.82
2018-02-22T20:45:49.970Z,8.63
2018-02-22T20:48:17.487Z,9.23
2018-02-22T20:50:44.998Z,9.60
2018-02-22T20:53:17.985Z,8.57
2018-02-22T20:55:45.458Z,8.10
2018-02-22T20:58:12.964Z,9.88
2018-02-22T21:00:40.422Z,9.32
2018-02-22T21:03:08.069Z,8.93
2018-02-22T21:05:35.515Z,8.30
2018-02-22T21:08:02.986Z,8.38
2018-02-22T21:10:30.433Z,8.45
2018-02-22T21:12:58.072Z,8.95
2018-02-22T21:15:25.534Z,8.40
2018-02-22T21:17:53.340Z,7.97
2018-02-22T21:20:20.823Z,7.78
2018-02-22T21:22:48.296Z,8.50
2018-02-22T21:25:15.734Z,7.20
2018-02-22T21:27:43.285Z,7.78
2018-02-22T21:30:10.788Z,8.10
2018-02-22T21:32:38.239Z,8.73
2018-02-22T21:35:05.703Z,8.75
2018-02-22T21:37:33.195Z,7.80
2018-02-22T21:40:00.723Z,9.00
2018-02-22T21:42:28.106Z,9.07
2018-02-22T21:44:55.596Z,9.07
2018-02-22T21:47:23.128Z,8.88
2018-02-22T21:49:50.788Z,8.73
2018-02-22T21:52:21.959Z,7.62
2018-02-22T21:54:49.651Z,8.65
2018-02-22T21:57:17.119Z,7.35
2018-02-22T21:59:44.647Z,8.90
2018-02-22T22:02:12.120Z,8.27
2018-02-22T22:04:39.628Z,8.15
2018-02-22T22:07:07.040Z,8.63
2018-02-22T22:09:34.501Z,8.18
2018-02-22T22:12:01.986Z,7.57
2018-02-22T22:14:29.471Z,7.78
2018-02-22T22:16:57.160Z,7.90
2018-02-22T22:19:24.703Z,7.40
2018-02-22T22:21:52.356Z,7.30
2018-02-22T22:24:19.799Z,7.12
2018-02-22T22:26:48.263Z,7.68
2018-02-22T22:29:15.707Z,10.57
2018-02-22T22:31:43.158Z,8.38
2018-02-22T22:34:10.730Z,8.18
2018-02-22T22:36:38.171Z,7.85
2018-02-22T22:39:05.631Z,8.60
2018-02-22T22:41:33.072Z,8.82
2018-02-22T22:44:00.617Z,7.57
2018-02-22T22:46:28.023Z,6.45
2018-02-22T22:48:55.479Z,9.30
2018-02-22T22:51:22.928Z,7.57
2018-02-22T22:53:50.381Z,7.20
2018-02-22T22:56:17.914Z,7.87
2018-02-22T22:58:45.388Z,7.70
2018-02-22T23:01:12.839Z,7.72
2018-02-22T23:03:40.293Z,7.80
2018-02-22T23:06:07.760Z,8.27
2018-02-22T23:08:35.221Z,7.40
2018-02-22T23:11:02.691Z,7.12
2018-02-22T23:13:30.165Z,7.82
2018-02-22T23:15:57.619Z,7.07
2018-02-22T23:18:25.168Z,8.60
2018-02-22T23:20:52.639Z,7.07
2018-02-22T23:23:20.112Z,7.18
2018-02-22T23:25:47.577Z,8.13
2018-02-22T23:28:15.120Z,7.68
2018-02-22T23:30:42.602Z,6.65
2018-02-22T23:33:10.074Z,6.60
2018-02-22T23:35:37.567Z,6.95
2018-02-22T23:38:06.468Z,8.35
2018-02-22T23:40:34.426Z,7.43
2018-02-22T23:43:01.926Z,7.28
2018-02-22T23:45:29.422Z,7.12
2018-02-22T23:47:56.892Z,7.12
2018-02-22T23:50:24.363Z,7.28
2018-02-22T23:52:51.810Z,7.37
2018-02-22T23:55:19.274Z,6.75
2018-02-22T23:57:46.852Z,7.32
